sensor_id;sensor_type;location;lat;lon;timestamp;P1;durP1;ratioP1;P2;durP2;ratioP2
15669;SDS011;18524;45.190;5.732;2023-05-19T00:04:38;14.20;;;12.70;;
15669;SDS011;18524;45.190;5.732;2023-05-19T00:09:29;14.10;;;12.60;;
15669;SDS011;18524;45.190;5.732;2023-05-19T00:14:20;14.23;;;12.13;;
15669;SDS011;18524;45.190;5.732;2023-05-19T00:19:10;12.83;;;11.53;;
15669;SDS011;18524;45.190;5.732;2023-05-19T00:24:01;12.90;;;11.60;;
15669;SDS011;18524;45.190;5.732;2023-05-19T00:28:51;12.27;;;10.97;;
15669;SDS011;18524;45.190;5.732;2023-05-19T00:33:42;12.50;;;11.17;;
15669;SDS011;18524;45.190;5.732;2023-05-19T00:38:33;11.47;;;10.27;;
15669;SDS011;18524;45.190;5.732;2023-05-19T00:43:25;13.80;;;11.00;;
15669;SDS011;18524;45.190;5.732;2023-05-19T00:48:15;11.70;;;10.13;;
15669;SDS011;18524;45.190;5.732;2023-05-19T00:53:06;13.03;;;10.47;;
15669;SDS011;18524;45.190;5.732;2023-05-19T00:57:57;13.87;;;10.60;;
15669;SDS011;18524;45.190;5.732;2023-05-19T01:02:47;12.47;;;11.17;;
15669;SDS011;18524;45.190;5.732;2023-05-19T01:07:39;12.13;;;10.83;;
15669;SDS011;18524;45.190;5.732;2023-05-19T01:12:30;12.73;;;11.33;;
15669;SDS011;18524;45.190;5.732;2023-05-19T01:17:28;13.10;;;10.63;;
15669;SDS011;18524;45.190;5.732;2023-05-19T01:32:53;11.50;;;10.30;;
15669;SDS011;18524;45.190;5.732;2023-05-19T01:37:46;13.47;;;10.90;;
15669;SDS011;18524;45.190;5.732;2023-05-19T01:42:37;14.73;;;11.83;;
15669;SDS011;18524;45.190;5.732;2023-05-19T01:47:29;18.00;;;11.53;;
15669;SDS011;18524;45.190;5.732;2023-05-19T01:52:19;19.13;;;12.23;;
15669;SDS011;18524;45.190;5.732;2023-05-19T02:02:17;17.10;;;13.00;;
15669;SDS011;18524;45.190;5.732;2023-05-19T02:17:37;15.63;;;12.73;;
15669;SDS011;18524;45.190;5.732;2023-05-19T02:22:31;15.10;;;13.60;;
15669;SDS011;18524;45.190;5.732;2023-05-19T02:27:21;15.43;;;12.93;;
15669;SDS011;18524;45.190;5.732;2023-05-19T02:32:13;13.80;;;12.30;;
15669;SDS011;18524;45.190;5.732;2023-05-19T02:37:03;15.43;;;13.33;;
15669;SDS011;18524;45.190;5.732;2023-05-19T02:41:54;13.03;;;11.70;;
15669;SDS011;18524;45.190;5.732;2023-05-19T02:46:44;14.10;;;12.60;;
15669;SDS011;18524;45.190;5.732;2023-05-19T02:51:35;13.87;;;12.27;;
15669;SDS011;18524;45.190;5.732;2023-05-19T02:56:25;12.60;;;11.23;;
15669;SDS011;18524;45.190;5.732;2023-05-19T03:01:17;14.00;;;11.23;;
15669;SDS011;18524;45.190;5.732;2023-05-19T03:06:07;14.07;;;12.27;;
15669;SDS011;18524;45.190;5.732;2023-05-19T03:10:58;12.10;;;10.87;;
15669;SDS011;18524;45.190;5.732;2023-05-19T03:15:48;11.70;;;10.60;;
15669;SDS011;18524;45.190;5.732;2023-05-19T03:20:39;12.63;;;10.90;;
15669;SDS011;18524;45.190;5.732;2023-05-19T03:25:31;12.90;;;10.97;;
15669;SDS011;18524;45.190;5.732;2023-05-19T03:30:21;11.80;;;10.60;;
15669;SDS011;18524;45.190;5.732;2023-05-19T03:35:12;12.23;;;10.93;;
15669;SDS011;18524;45.190;5.732;2023-05-19T03:40:02;12.10;;;10.80;;
15669;SDS011;18524;45.190;5.732;2023-05-19T03:44:54;11.53;;;10.17;;
15669;SDS011;18524;45.190;5.732;2023-05-19T03:49:44;12.77;;;10.87;;
15669;SDS011;18524;45.190;5.732;2023-05-19T03:54:35;11.80;;;10.63;;
15669;SDS011;18524;45.190;5.732;2023-05-19T03:59:26;12.60;;;10.80;;
15669;SDS011;18524;45.190;5.732;2023-05-19T04:04:16;11.87;;;10.67;;
15669;SDS011;18524;45.190;5.732;2023-05-19T04:09:13;14.23;;;11.50;;
15669;SDS011;18524;45.190;5.732;2023-05-19T04:14:05;12.90;;;11.30;;
15669;SDS011;18524;45.190;5.732;2023-05-19T04:18:55;11.87;;;10.67;;
15669;SDS011;18524;45.190;5.732;2023-05-19T04:23:46;13.13;;;11.70;;
15669;SDS011;18524;45.190;5.732;2023-05-19T04:28:36;13.03;;;11.67;;
15669;SDS011;18524;45.190;5.732;2023-05-19T04:33:28;12.80;;;11.50;;
15669;SDS011;18524;45.190;5.732;2023-05-19T04:38:19;13.93;;;11.77;;
15669;SDS011;18524;45.190;5.732;2023-05-19T04:43:11;14.23;;;12.10;;
15669;SDS011;18524;45.190;5.732;2023-05-19T04:48:01;15.20;;;11.30;;
15669;SDS011;18524;45.190;5.732;2023-05-19T04:52:51;14.73;;;13.33;;
15669;SDS011;18524;45.190;5.732;2023-05-19T04:57:42;14.07;;;12.57;;
15669;SDS011;18524;45.190;5.732;2023-05-19T05:02:32;14.70;;;13.13;;
15669;SDS011;18524;45.190;5.732;2023-05-19T05:07:23;13.87;;;12.17;;
15669;SDS011;18524;45.190;5.732;2023-05-19T05:12:14;15.13;;;13.57;;
15669;SDS011;18524;45.190;5.732;2023-05-19T05:17:05;14.47;;;12.97;;
15669;SDS011;18524;45.190;5.732;2023-05-19T05:21:56;15.80;;;14.20;;
15669;SDS011;18524;45.190;5.732;2023-05-19T05:26:47;17.23;;;15.37;;
15669;SDS011;18524;45.190;5.732;2023-05-19T05:31:38;19.43;;;15.70;;
15669;SDS011;18524;45.190;5.732;2023-05-19T05:36:28;16.40;;;14.67;;
15669;SDS011;18524;45.190;5.732;2023-05-19T05:41:20;14.43;;;13.13;;
15669;SDS011;18524;45.190;5.732;2023-05-19T05:46:11;15.17;;;12.97;;
15669;SDS011;18524;45.190;5.732;2023-05-19T05:51:01;14.77;;;13.27;;
15669;SDS011;18524;45.190;5.732;2023-05-19T05:55:52;15.10;;;13.60;;
15669;SDS011;18524;45.190;5.732;2023-05-19T06:00:42;16.43;;;13.80;;
15669;SDS011;18524;45.190;5.732;2023-05-19T06:05:33;17.07;;;14.40;;
15669;SDS011;18524;45.190;5.732;2023-05-19T06:10:23;17.37;;;13.87;;
15669;SDS011;18524;45.190;5.732;2023-05-19T06:15:14;14.27;;;12.97;;
15669;SDS011;18524;45.190;5.732;2023-05-19T06:20:04;14.20;;;12.70;;
15669;SDS011;18524;45.190;5.732;2023-05-19T06:24:55;14.23;;;12.73;;
15669;SDS011;18524;45.190;5.732;2023-05-19T06:29:46;13.00;;;11.70;;
15669;SDS011;18524;45.190;5.732;2023-05-19T06:34:36;12.70;;;11.40;;
15669;SDS011;18524;45.190;5.732;2023-05-19T06:39:27;13.63;;;12.33;;
15669;SDS011;18524;45.190;5.732;2023-05-19T06:44:17;16.10;;;14.37;;
15669;SDS011;18524;45.190;5.732;2023-05-19T06:49:08;17.50;;;15.70;;
15669;SDS011;18524;45.190;5.732;2023-05-19T06:53:58;16.63;;;15.00;;
15669;SDS011;18524;45.190;5.732;2023-05-19T06:58:48;17.77;;;16.10;;
15669;SDS011;18524;45.190;5.732;2023-05-19T07:03:39;18.43;;;16.63;;
15669;SDS011;18524;45.190;5.732;2023-05-19T07:08:29;18.40;;;16.40;;
15669;SDS011;18524;45.190;5.732;2023-05-19T07:13:19;15.73;;;14.23;;
15669;SDS011;18524;45.190;5.732;2023-05-19T07:18:10;15.30;;;13.80;;
15669;SDS011;18524;45.190;5.732;2023-05-19T07:23:00;16.40;;;14.43;;
15669;SDS011;18524;45.190;5.732;2023-05-19T07:27:51;14.73;;;13.37;;
15669;SDS011;18524;45.190;5.732;2023-05-19T07:32:42;14.50;;;13.07;;
15669;SDS011;18524;45.190;5.732;2023-05-19T07:37:32;13.83;;;12.00;;
15669;SDS011;18524;45.190;5.732;2023-05-19T07:42:22;14.37;;;12.93;;
15669;SDS011;18524;45.190;5.732;2023-05-19T07:47:13;12.60;;;11.37;;
15669;SDS011;18524;45.190;5.732;2023-05-19T07:52:03;12.90;;;11.67;;
15669;SDS011;18524;45.190;5.732;2023-05-19T07:56:54;13.43;;;12.03;;
15669;SDS011;18524;45.190;5.732;2023-05-19T08:01:44;11.50;;;10.30;;
15669;SDS011;18524;45.190;5.732;2023-05-19T08:06:35;13.63;;;10.27;;
15669;SDS011;18524;45.190;5.732;2023-05-19T08:11:25;12.43;;;11.20;;
15669;SDS011;18524;45.190;5.732;2023-05-19T08:16:16;13.67;;;12.10;;
15669;SDS011;18524;45.190;5.732;2023-05-19T08:21:06;12.20;;;10.90;;
15669;SDS011;18524;45.190;5.732;2023-05-19T08:25:57;12.20;;;10.73;;
15669;SDS011;18524;45.190;5.732;2023-05-19T08:30:48;13.13;;;11.73;;
15669;SDS011;18524;45.190;5.732;2023-05-19T08:35:39;12.80;;;11.07;;
15669;SDS011;18524;45.190;5.732;2023-05-19T08:40:30;11.30;;;10.20;;
15669;SDS011;18524;45.190;5.732;2023-05-19T08:45:22;11.47;;;10.00;;
15669;SDS011;18524;45.190;5.732;2023-05-19T08:50:15;14.30;;;11.80;;
15669;SDS011;18524;45.190;5.732;2023-05-19T09:00:16;12.30;;;11.10;;
15669;SDS011;18524;45.190;5.732;2023-05-19T09:05:07;12.60;;;11.40;;
15669;SDS011;18524;45.190;5.732;2023-05-19T09:09:59;12.73;;;11.43;;
15669;SDS011;18524;45.190;5.732;2023-05-19T09:14:50;12.57;;;11.27;;
15669;SDS011;18524;45.190;5.732;2023-05-19T09:19:41;11.53;;;10.43;;
15669;SDS011;18524;45.190;5.732;2023-05-19T09:24:33;13.33;;;10.70;;
15669;SDS011;18524;45.190;5.732;2023-05-19T09:29:23;12.70;;;10.00;;
15669;SDS011;18524;45.190;5.732;2023-05-19T09:34:14;10.30;;;9.30;;
15669;SDS011;18524;45.190;5.732;2023-05-19T09:39:14;9.57;;;8.67;;
15669;SDS011;18524;45.190;5.732;2023-05-19T09:44:06;8.73;;;7.93;;
15669;SDS011;18524;45.190;5.732;2023-05-19T09:48:56;9.03;;;8.13;;
15669;SDS011;18524;45.190;5.732;2023-05-19T09:53:47;8.47;;;7.67;;
15669;SDS011;18524;45.190;5.732;2023-05-19T09:58:38;12.00;;;7.97;;
15669;SDS011;18524;45.190;5.732;2023-05-19T10:03:31;9.40;;;7.87;;
15669;SDS011;18524;45.190;5.732;2023-05-19T10:08:22;8.83;;;8.03;;
15669;SDS011;18524;45.190;5.732;2023-05-19T10:13:15;10.57;;;7.80;;
15669;SDS011;18524;45.190;5.732;2023-05-19T10:18:07;9.47;;;8.67;;
15669;SDS011;18524;45.190;5.732;2023-05-19T10:22:58;9.20;;;8.40;;
15669;SDS011;18524;45.190;5.732;2023-05-19T10:27:50;10.03;;;9.03;;
15669;SDS011;18524;45.190;5.732;2023-05-19T10:32:44;10.37;;;9.37;;
15669;SDS011;18524;45.190;5.732;2023-05-19T10:47:43;12.80;;;11.60;;
15669;SDS011;18524;45.190;5.732;2023-05-19T10:52:38;10.23;;;9.23;;
15669;SDS011;18524;45.190;5.732;2023-05-19T10:57:29;9.57;;;8.30;;
15669;SDS011;18524;45.190;5.732;2023-05-19T11:02:39;9.33;;;8.00;;
15669;SDS011;18524;45.190;5.732;2023-05-19T11:07:32;7.13;;;6.17;;
15669;SDS011;18524;45.190;5.732;2023-05-19T11:12:23;6.33;;;5.73;;
15669;SDS011;18524;45.190;5.732;2023-05-19T11:17:14;6.33;;;5.40;;
15669;SDS011;18524;45.190;5.732;2023-05-19T11:22:09;5.80;;;5.30;;
15669;SDS011;18524;45.190;5.732;2023-05-19T11:32:10;6.77;;;5.20;;
15669;SDS011;18524;45.190;5.732;2023-05-19T11:37:01;5.63;;;5.13;;
15669;SDS011;18524;45.190;5.732;2023-05-19T11:41:54;7.13;;;5.03;;
15669;SDS011;18524;45.190;5.732;2023-05-19T11:46:44;5.27;;;4.77;;
15669;SDS011;18524;45.190;5.732;2023-05-19T11:51:35;6.40;;;5.50;;
15669;SDS011;18524;45.190;5.732;2023-05-19T11:56:25;7.83;;;5.47;;
15669;SDS011;18524;45.190;5.732;2023-05-19T12:01:15;6.03;;;5.43;;
15669;SDS011;18524;45.190;5.732;2023-05-19T12:06:06;6.40;;;5.50;;
15669;SDS011;18524;45.190;5.732;2023-05-19T12:10:57;7.73;;;5.67;;
15669;SDS011;18524;45.190;5.732;2023-05-19T12:15:49;6.40;;;5.80;;
15669;SDS011;18524;45.190;5.732;2023-05-19T12:20:41;5.87;;;5.27;;
15669;SDS011;18524;45.190;5.732;2023-05-19T12:25:32;6.10;;;5.50;;
15669;SDS011;18524;45.190;5.732;2023-05-19T12:30:26;6.73;;;5.80;;
15669;SDS011;18524;45.190;5.732;2023-05-19T12:35:17;6.90;;;5.40;;
15669;SDS011;18524;45.190;5.732;2023-05-19T12:40:13;6.07;;;5.10;;
15669;SDS011;18524;45.190;5.732;2023-05-19T12:45:05;7.53;;;5.17;;
15669;SDS011;18524;45.190;5.732;2023-05-19T12:50:07;6.87;;;5.70;;
15669;SDS011;18524;45.190;5.732;2023-05-19T12:54:59;5.70;;;5.17;;
15669;SDS011;18524;45.190;5.732;2023-05-19T12:59:51;6.00;;;5.47;;
15669;SDS011;18524;45.190;5.732;2023-05-19T13:04:41;6.23;;;5.10;;
15669;SDS011;18524;45.190;5.732;2023-05-19T13:09:33;6.30;;;5.70;;
15669;SDS011;18524;45.190;5.732;2023-05-19T13:14:25;5.73;;;5.23;;
15669;SDS011;18524;45.190;5.732;2023-05-19T13:19:16;6.47;;;5.73;;
15669;SDS011;18524;45.190;5.732;2023-05-19T13:24:08;5.90;;;5.30;;
15669;SDS011;18524;45.190;5.732;2023-05-19T13:28:58;5.93;;;5.40;;
15669;SDS011;18524;45.190;5.732;2023-05-19T13:33:49;7.70;;;5.67;;
15669;SDS011;18524;45.190;5.732;2023-05-19T13:38:39;7.20;;;5.83;;
15669;SDS011;18524;45.190;5.732;2023-05-19T13:43:30;6.20;;;5.70;;
15669;SDS011;18524;45.190;5.732;2023-05-19T13:48:21;7.50;;;6.27;;
15669;SDS011;18524;45.190;5.732;2023-05-19T13:53:11;6.73;;;5.40;;
15669;SDS011;18524;45.190;5.732;2023-05-19T13:58:01;6.40;;;5.80;;
15669;SDS011;18524;45.190;5.732;2023-05-19T14:02:52;6.40;;;5.80;;
15669;SDS011;18524;45.190;5.732;2023-05-19T14:07:42;6.33;;;5.77;;
15669;SDS011;18524;45.190;5.732;2023-05-19T14:12:34;8.33;;;6.10;;
15669;SDS011;18524;45.190;5.732;2023-05-19T14:17:25;6.73;;;5.83;;
15669;SDS011;18524;45.190;5.732;2023-05-19T14:22:17;6.97;;;5.93;;
15669;SDS011;18524;45.190;5.732;2023-05-19T14:27:08;7.17;;;6.03;;
15669;SDS011;18524;45.190;5.732;2023-05-19T14:31:58;6.90;;;5.80;;
15669;SDS011;18524;45.190;5.732;2023-05-19T14:36:49;6.90;;;6.30;;
15669;SDS011;18524;45.190;5.732;2023-05-19T14:41:39;7.27;;;6.57;;
15669;SDS011;18524;45.190;5.732;2023-05-19T14:46:30;7.00;;;6.20;;
15669;SDS011;18524;45.190;5.732;2023-05-19T14:51:20;7.47;;;6.50;;
15669;SDS011;18524;45.190;5.732;2023-05-19T14:56:11;7.63;;;6.57;;
15669;SDS011;18524;45.190;5.732;2023-05-19T15:01:01;7.20;;;6.23;;
15669;SDS011;18524;45.190;5.732;2023-05-19T15:05:51;7.60;;;6.57;;
15669;SDS011;18524;45.190;5.732;2023-05-19T15:10:42;7.17;;;6.47;;
15669;SDS011;18524;45.190;5.732;2023-05-19T15:15:32;6.83;;;6.23;;
15669;SDS011;18524;45.190;5.732;2023-05-19T15:20:22;6.50;;;5.90;;
15669;SDS011;18524;45.190;5.732;2023-05-19T15:25:13;7.00;;;6.03;;
15669;SDS011;18524;45.190;5.732;2023-05-19T15:30:04;7.43;;;6.20;;
15669;SDS011;18524;45.190;5.732;2023-05-19T15:34:55;7.70;;;7.00;;
15669;SDS011;18524;45.190;5.732;2023-05-19T15:39:45;7.10;;;6.40;;
15669;SDS011;18524;45.190;5.732;2023-05-19T15:44:36;8.77;;;7.57;;
15669;SDS011;18524;45.190;5.732;2023-05-19T15:49:26;8.47;;;7.30;;
15669;SDS011;18524;45.190;5.732;2023-05-19T15:54:16;9.30;;;8.23;;
15669;SDS011;18524;45.190;5.732;2023-05-19T15:59:07;7.87;;;7.07;;
15669;SDS011;18524;45.190;5.732;2023-05-19T16:03:57;7.37;;;6.60;;
15669;SDS011;18524;45.190;5.732;2023-05-19T16:08:48;8.23;;;6.50;;
15669;SDS011;18524;45.190;5.732;2023-05-19T16:13:39;7.03;;;6.37;;
15669;SDS011;18524;45.190;5.732;2023-05-19T16:18:29;8.93;;;7.13;;
15669;SDS011;18524;45.190;5.732;2023-05-19T16:23:20;8.13;;;6.97;;
15669;SDS011;18524;45.190;5.732;2023-05-19T16:28:10;10.63;;;7.63;;
15669;SDS011;18524;45.190;5.732;2023-05-19T16:33:00;8.97;;;8.17;;
15669;SDS011;18524;45.190;5.732;2023-05-19T16:37:51;9.53;;;8.50;;
15669;SDS011;18524;45.190;5.732;2023-05-19T16:42:41;10.20;;;9.20;;
15669;SDS011;18524;45.190;5.732;2023-05-19T16:47:31;11.03;;;8.90;;
15669;SDS011;18524;45.190;5.732;2023-05-19T16:52:22;10.97;;;9.53;;
15669;SDS011;18524;45.190;5.732;2023-05-19T16:57:12;12.87;;;10.00;;
15669;SDS011;18524;45.190;5.732;2023-05-19T17:02:05;11.70;;;10.40;;
15669;SDS011;18524;45.190;5.732;2023-05-19T17:06:56;11.47;;;10.27;;
15669;SDS011;18524;45.190;5.732;2023-05-19T17:11:47;9.83;;;8.20;;
15669;SDS011;18524;45.190;5.732;2023-05-19T17:16:37;11.70;;;10.33;;
15669;SDS011;18524;45.190;5.732;2023-05-19T17:21:28;12.03;;;10.83;;
15669;SDS011;18524;45.190;5.732;2023-05-19T17:26:18;13.00;;;11.70;;
15669;SDS011;18524;45.190;5.732;2023-05-19T17:31:09;13.63;;;12.23;;
15669;SDS011;18524;45.190;5.732;2023-05-19T17:36:01;14.17;;;12.83;;
15669;SDS011;18524;45.190;5.732;2023-05-19T17:40:56;15.67;;;13.57;;
15669;SDS011;18524;45.190;5.732;2023-05-19T17:45:50;16.27;;;14.70;;
15669;SDS011;18524;45.190;5.732;2023-05-19T17:50:40;15.70;;;14.10;;
15669;SDS011;18524;45.190;5.732;2023-05-19T17:55:30;14.20;;;12.90;;
15669;SDS011;18524;45.190;5.732;2023-05-19T18:00:21;15.27;;;13.80;;
15669;SDS011;18524;45.190;5.732;2023-05-19T18:05:12;14.23;;;12.90;;
15669;SDS011;18524;45.190;5.732;2023-05-19T18:10:03;13.70;;;12.40;;
15669;SDS011;18524;45.190;5.732;2023-05-19T18:14:55;11.43;;;10.37;;
15669;SDS011;18524;45.190;5.732;2023-05-19T18:19:45;12.87;;;11.53;;
15669;SDS011;18524;45.190;5.732;2023-05-19T18:24:35;14.73;;;13.33;;
15669;SDS011;18524;45.190;5.732;2023-05-19T18:29:26;13.93;;;12.67;;
15669;SDS011;18524;45.190;5.732;2023-05-19T18:34:16;14.10;;;12.70;;
15669;SDS011;18524;45.190;5.732;2023-05-19T18:39:06;15.57;;;14.23;;
15669;SDS011;18524;45.190;5.732;2023-05-19T18:43:57;16.20;;;14.43;;
15669;SDS011;18524;45.190;5.732;2023-05-19T18:48:47;16.20;;;14.07;;
15669;SDS011;18524;45.190;5.732;2023-05-19T18:53:39;15.43;;;13.80;;
15669;SDS011;18524;45.190;5.732;2023-05-19T18:58:30;15.73;;;14.10;;
15669;SDS011;18524;45.190;5.732;2023-05-19T19:03:20;16.70;;;15.00;;
15669;SDS011;18524;45.190;5.732;2023-05-19T19:08:11;18.10;;;15.93;;
15669;SDS011;18524;45.190;5.732;2023-05-19T19:13:01;16.77;;;15.13;;
15669;SDS011;18524;45.190;5.732;2023-05-19T19:17:52;16.83;;;15.17;;
15669;SDS011;18524;45.190;5.732;2023-05-19T19:22:42;17.97;;;16.30;;
15669;SDS011;18524;45.190;5.732;2023-05-19T19:27:32;17.90;;;16.20;;
15669;SDS011;18524;45.190;5.732;2023-05-19T19:32:24;18.40;;;16.50;;
15669;SDS011;18524;45.190;5.732;2023-05-19T19:37:15;17.47;;;15.87;;
15669;SDS011;18524;45.190;5.732;2023-05-19T19:42:05;19.10;;;17.30;;
15669;SDS011;18524;45.190;5.732;2023-05-19T19:46:55;21.50;;;19.17;;
15669;SDS011;18524;45.190;5.732;2023-05-19T19:51:46;19.53;;;17.67;;
15669;SDS011;18524;45.190;5.732;2023-05-19T19:56:36;19.27;;;17.47;;
15669;SDS011;18524;45.190;5.732;2023-05-19T20:01:26;17.93;;;16.20;;
15669;SDS011;18524;45.190;5.732;2023-05-19T20:06:17;18.53;;;16.60;;
15669;SDS011;18524;45.190;5.732;2023-05-19T20:11:07;17.90;;;16.10;;
15669;SDS011;18524;45.190;5.732;2023-05-19T20:15:58;18.97;;;17.07;;
15669;SDS011;18524;45.190;5.732;2023-05-19T20:20:48;18.77;;;16.83;;
15669;SDS011;18524;45.190;5.732;2023-05-19T20:25:38;19.40;;;17.27;;
15669;SDS011;18524;45.190;5.732;2023-05-19T20:30:31;18.50;;;16.63;;
15669;SDS011;18524;45.190;5.732;2023-05-19T20:35:22;19.30;;;17.40;;
15669;SDS011;18524;45.190;5.732;2023-05-19T20:40:12;18.80;;;16.90;;
15669;SDS011;18524;45.190;5.732;2023-05-19T20:45:03;22.63;;;20.23;;
15669;SDS011;18524;45.190;5.732;2023-05-19T20:49:53;19.63;;;17.70;;
15669;SDS011;18524;45.190;5.732;2023-05-19T20:54:44;18.57;;;16.77;;
15669;SDS011;18524;45.190;5.732;2023-05-19T20:59:35;20.17;;;18.07;;
15669;SDS011;18524;45.190;5.732;2023-05-19T21:04:25;20.03;;;18.20;;
15669;SDS011;18524;45.190;5.732;2023-05-19T21:09:16;20.03;;;18.03;;
15669;SDS011;18524;45.190;5.732;2023-05-19T21:14:06;22.37;;;20.20;;
15669;SDS011;18524;45.190;5.732;2023-05-19T21:18:57;20.97;;;19.03;;
15669;SDS011;18524;45.190;5.732;2023-05-19T21:23:47;20.13;;;18.23;;
15669;SDS011;18524;45.190;5.732;2023-05-19T21:28:37;19.93;;;17.97;;
15669;SDS011;18524;45.190;5.732;2023-05-19T21:33:28;20.67;;;18.63;;
15669;SDS011;18524;45.190;5.732;2023-05-19T21:38:18;20.07;;;18.17;;
15669;SDS011;18524;45.190;5.732;2023-05-19T21:43:08;17.83;;;16.13;;
15669;SDS011;18524;45.190;5.732;2023-05-19T21:48:01;18.97;;;17.27;;
15669;SDS011;18524;45.190;5.732;2023-05-19T21:52:51;19.47;;;17.67;;
15669;SDS011;18524;45.190;5.732;2023-05-19T21:57:42;19.33;;;17.53;;
15669;SDS011;18524;45.190;5.732;2023-05-19T22:02:32;18.70;;;16.90;;
15669;SDS011;18524;45.190;5.732;2023-05-19T22:07:22;18.33;;;16.57;;
15669;SDS011;18524;45.190;5.732;2023-05-19T22:12:15;17.70;;;16.00;;
15669;SDS011;18524;45.190;5.732;2023-05-19T22:17:06;16.70;;;15.03;;
15669;SDS011;18524;45.190;5.732;2023-05-19T22:21:56;15.43;;;13.93;;
15669;SDS011;18524;45.190;5.732;2023-05-19T22:26:46;14.80;;;13.10;;
15669;SDS011;18524;45.190;5.732;2023-05-19T22:31:37;15.03;;;13.43;;
15669;SDS011;18524;45.190;5.732;2023-05-19T22:36:27;15.13;;;13.73;;
15669;SDS011;18524;45.190;5.732;2023-05-19T22:41:17;14.90;;;13.60;;
15669;SDS011;18524;45.190;5.732;2023-05-19T22:46:08;14.60;;;13.10;;
15669;SDS011;18524;45.190;5.732;2023-05-19T22:50:58;14.33;;;13.00;;
15669;SDS011;18524;45.190;5.732;2023-05-19T22:55:49;15.20;;;13.70;;
15669;SDS011;18524;45.190;5.732;2023-05-19T23:00:39;15.70;;;14.30;;
15669;SDS011;18524;45.190;5.732;2023-05-19T23:05:30;15.53;;;14.03;;
15669;SDS011;18524;45.190;5.732;2023-05-19T23:10:20;16.80;;;15.17;;
15669;SDS011;18524;45.190;5.732;2023-05-19T23:15:10;17.77;;;15.83;;
15669;SDS011;18524;45.190;5.732;2023-05-19T23:20:01;19.20;;;17.17;;
15669;SDS011;18524;45.190;5.732;2023-05-19T23:24:51;16.73;;;14.90;;
15669;SDS011;18524;45.190;5.732;2023-05-19T23:29:45;15.90;;;14.30;;
15669;SDS011;18524;45.190;5.732;2023-05-19T23:34:36;15.07;;;13.57;;
15669;SDS011;18524;45.190;5.732;2023-05-19T23:39:26;14.10;;;12.70;;
15669;SDS011;18524;45.190;5.732;2023-05-19T23:44:17;13.63;;;11.97;;
15669;SDS011;18524;45.190;5.732;2023-05-19T23:49:07;13.50;;;12.20;;
15669;SDS011;18524;45.190;5.732;2023-05-19T23:53:57;13.73;;;12.43;;
15669;SDS011;18524;45.190;5.732;2023-05-19T23:58:48;14.10;;;12.63;;
